Time;durP1;ratioP1;P1;durP2;ratioP2;P2;SDS_P1;SDS_P2;PMS_P1;PMS_P2;Temp;Humidity;BMP_temperature;BMP_pressure;BME280_temperature;BME280_humidity;BME280_pressure;Samples;Min_cycle;Max_cycle;Signal;HPM_P1;HPM_P2
2022/11/29 00:01:46;;;;;;;79.05;27.42;;;10.60;99.90;;;;;;6174355;28;20571;-86
2022/11/29 00:04:49;;;;;;;90.30;28.02;;;10.50;99.90;;;;;;6175070;28;20531;-87
2022/11/29 00:07:51;;;;;;;108.70;37.08;;;10.70;99.90;;;;;;6175470;28;20129;-87
2022/11/29 00:10:52;;;;;;;61.70;20.77;;;11.60;99.90;;;;;;6175112;28;20049;-87
2022/11/29 00:13:54;;;;;;;85.90;26.98;;;10.40;99.90;;;;;;6174974;28;20546;-87
2022/11/29 00:17:00;;;;;;;63.88;22.38;;;10.80;99.90;;;;;;6175153;28;20130;-87
2022/11/29 00:20:04;;;;;;;91.07;26.88;;;10.50;99.90;;;;;;6175993;28;20062;-87
2022/11/29 00:23:06;;;;;;;81.03;24.38;;;10.60;99.90;;;;;;6176702;28;20142;-87
2022/11/29 00:26:09;;;;;;;91.82;26.60;;;10.40;99.90;;;;;;6177238;28;20050;-86
2022/11/29 00:29:11;;;;;;;74.80;24.33;;;11.60;99.90;;;;;;6177458;28;20047;-86
2022/11/29 00:32:13;;;;;;;80.38;23.70;;;10.60;99.90;;;;;;6178443;28;20057;-86
2022/11/29 00:35:16;;;;;;;72.28;23.95;;;10.60;99.90;;;;;;6179426;28;20051;-86
2022/11/29 00:38:18;;;;;;;68.82;25.42;;;10.60;99.90;;;;;;6177977;28;20155;-86
2022/11/29 00:41:20;;;;;;;65.43;23.30;;;11.30;99.90;;;;;;6179259;28;20051;-87
2022/11/29 00:44:22;;;;;;;78.88;25.23;;;10.60;99.90;;;;;;6193715;28;20147;-88
2022/11/29 00:47:24;;;;;;;88.57;33.38;;;10.80;99.90;;;;;;6203897;28;20110;-88
2022/11/29 00:50:27;;;;;;;81.57;26.67;;;10.60;99.90;;;;;;6186934;28;20319;-87
2022/11/29 00:53:29;;;;;;;86.22;27.35;;;10.60;99.90;;;;;;6182057;28;20070;-87
2022/11/29 00:56:31;;;;;;;89.70;30.30;;;11.40;99.90;;;;;;6180895;28;20139;-87
2022/11/29 00:59:32;;;;;;;84.95;30.73;;;10.60;99.90;;;;;;6180242;28;20046;-87
2022/11/29 01:02:34;;;;;;;98.47;32.67;;;10.70;99.90;;;;;;6180244;28;20057;-87
2022/11/29 01:05:37;;;;;;;93.43;30.00;;;10.70;99.90;;;;;;6180206;28;20125;-87
2022/11/29 01:08:39;;;;;;;104.63;35.20;;;10.70;99.90;;;;;;6179373;28;20051;-86
2022/11/29 01:11:41;;;;;;;99.32;33.42;;;10.70;99.90;;;;;;6178425;28;20053;-88
2022/11/29 01:18:45;;;;;;;85.10;32.63;;;;;;;;;;6154419;28;20079;-87
2022/11/29 01:21:48;;;;;;;83.20;26.10;;;10.70;99.90;;;;;;6153586;28;20055;-86
2022/11/29 01:24:50;;;;;;;92.30;31.83;;;10.60;99.90;;;;;;6155135;28;20156;-86
2022/11/29 01:27:54;;;;;;;89.75;33.38;;;10.60;99.90;;;;;;6155035;28;20075;-87
2022/11/29 01:30:56;;;;;;;73.90;27.15;;;10.60;99.90;;;;;;6153064;28;20413;-87
2022/11/29 01:34:00;;;;;;;102.93;33.75;;;10.60;99.90;;;;;;6154398;28;20158;-87
2022/11/29 01:37:04;;;;;;;85.82;30.33;;;10.50;99.90;;;;;;6154588;28;20126;-86
2022/11/29 01:40:07;;;;;;;102.22;34.63;;;10.70;99.90;;;;;;6154001;28;20051;-87
2022/11/29 01:43:15;;;;;;;93.50;30.80;;;10.60;99.90;;;;;;6155021;28;20055;-86
2022/11/29 01:46:16;;;;;;;;;;;11.20;99.90;;;;;;6154779;28;20058;-86
2022/11/29 01:49:22;;;;;;;102.18;34.00;;;10.60;99.90;;;;;;6154256;28;20061;-87
2022/11/29 01:52:28;;;;;;;93.72;33.55;;;10.80;99.90;;;;;;6154653;28;20039;-87
2022/11/29 01:55:30;;;;;;;93.82;33.88;;;10.60;99.90;;;;;;6155312;28;20139;-86
2022/11/29 01:58:33;;;;;;;81.85;30.88;;;10.50;99.90;;;;;;6153662;28;20051;-86
2022/11/29 02:01:35;;;;;;;85.40;33.55;;;10.60;99.90;;;;;;6153341;28;20182;-86
2022/11/29 02:04:38;;;;;;;83.80;29.35;;;10.60;99.90;;;;;;6154087;28;20637;-87
2022/11/29 02:07:43;;;;;;;72.63;30.70;;;10.60;99.90;;;;;;6154280;28;20154;-86
2022/11/29 02:10:59;;;;;;;84.65;31.40;;;10.60;99.90;;;;;;6154723;28;20054;-86
2022/11/29 02:14:13;;;;;;;99.05;35.75;;;10.50;99.90;;;;;;6154635;28;20048;-86
2022/11/29 02:18:14;;;;;;;96.80;38.85;;;10.60;99.90;;;;;;6153729;28;20086;-87
2022/11/29 02:21:27;;;;;;;;;;;10.60;99.90;;;;;;6153799;28;20260;-87
2022/11/29 02:25:03;;;;;;;89.68;44.42;;;10.60;99.90;;;;;;6154123;28;19970;-86
2022/11/29 02:28:46;;;;;;;92.90;42.95;;;10.60;99.90;;;;;;6154434;28;20047;-86
2022/11/29 02:32:18;;;;;;;92.40;39.88;;;10.60;99.90;;;;;;6153617;28;20156;-86
2022/11/29 02:35:38;;;;;;;92.43;42.30;;;10.50;99.90;;;;;;6141650;28;20051;-87
2022/11/29 02:39:02;;;;;;;91.38;38.13;;;10.60;99.90;;;;;;6153192;28;20409;-86
2022/11/29 02:42:48;;;;;;;74.50;36.00;;;10.60;99.90;;;;;;6157167;28;20191;-86
2022/11/29 02:46:10;;;;;;;91.07;39.30;;;10.70;99.90;;;;;;6159306;28;20429;-86
2022/11/29 02:49:22;;;;;;;86.63;41.72;;;10.50;99.90;;;;;;6159937;28;20051;-86
2022/11/29 02:52:34;;;;;;;89.57;39.53;;;10.60;99.90;;;;;;6158885;28;20054;-86
2022/11/29 02:55:45;;;;;;;87.85;36.10;;;10.70;99.90;;;;;;6177014;28;20424;-86
2022/11/29 02:58:51;;;;;;;71.07;33.67;;;12.40;99.90;;;;;;6181814;28;20273;-86
2022/11/29 03:02:01;;;;;;;105.40;35.83;;;10.60;99.90;;;;;;6180647;28;20420;-85
2022/11/29 03:05:12;;;;;;;75.53;32.20;;;12.20;99.90;;;;;;6182305;28;20047;-86
2022/11/29 03:08:25;;;;;;;82.22;35.85;;;13.10;99.90;;;;;;6181486;28;20115;-86
2022/11/29 03:11:34;;;;;;;91.65;44.40;;;10.70;99.90;;;;;;6181535;28;20145;-86
2022/11/29 03:14:50;;;;;;;98.90;48.22;;;12.70;99.90;;;;;;6179486;28;20178;-87
2022/11/29 03:18:02;;;;;;;106.13;50.08;;;10.70;99.90;;;;;;6181707;28;20057;-86
2022/11/29 03:21:13;;;;;;;113.13;55.30;;;10.80;99.90;;;;;;6182014;28;20082;-86
2022/11/29 03:24:21;;;;;;;121.13;54.95;;;10.60;99.90;;;;;;6176375;28;20059;-86
2022/11/29 03:27:29;;;;;;;102.88;50.67;;;10.70;99.90;;;;;;6182216;28;20065;-87
2022/11/29 03:30:34;;;;;;;88.45;45.83;;;12.70;99.90;;;;;;6181720;28;20051;-85
2022/11/29 03:33:45;;;;;;;95.72;52.70;;;10.60;99.90;;;;;;6181714;28;20530;-86
2022/11/29 03:36:56;;;;;;;97.22;53.05;;;10.70;99.90;;;;;;6181918;28;20079;-86
2022/11/29 03:40:07;;;;;;;109.80;60.30;;;10.70;99.90;;;;;;6178986;28;20078;-87
2022/11/29 03:43:14;;;;;;;96.75;58.50;;;10.80;99.90;;;;;;6181707;28;20047;-85
2022/11/29 03:46:23;;;;;;;103.05;59.58;;;10.80;99.90;;;;;;6180942;28;20497;-88
2022/11/29 03:49:33;;;;;;;107.90;56.63;;;10.60;99.90;;;;;;6181451;28;20047;-86
2022/11/29 03:52:42;;;;;;;81.32;48.38;;;10.70;99.90;;;;;;6180379;28;20411;-86
2022/11/29 03:55:58;;;;;;;77.53;47.63;;;10.80;99.90;;;;;;6181603;28;20105;-86
2022/11/29 03:59:22;;;;;;;80.05;42.78;;;10.80;99.90;;;;;;6181976;28;20053;-87
2022/11/29 04:03:08;;;;;;;84.25;49.53;;;10.90;99.90;;;;;;6181974;28;20137;-87
2022/11/29 04:06:21;;;;;;;86.53;47.10;;;10.80;99.90;;;;;;6179781;28;20061;-86
2022/11/29 04:09:42;;;;;;;82.47;39.55;;;12.10;99.90;;;;;;6181094;28;20049;-87
2022/11/29 04:13:15;;;;;;;69.72;37.13;;;10.80;99.90;;;;;;6179812;23;20043;-80
2022/11/29 04:17:05;;;;;;;74.03;39.95;;;10.70;99.90;;;;;;6162053;28;20054;-80
2022/11/29 04:20:41;;;;;;;78.85;41.05;;;11.10;99.90;;;;;;6105549;28;20048;-80
2022/11/29 04:24:01;;;;;;;78.93;33.95;;;10.70;99.90;;;;;;6174144;28;20061;-80
2022/11/29 04:27:23;;;;;;;76.68;32.22;;;10.80;99.90;;;;;;6182587;28;20050;-80
2022/11/29 04:30:32;;;;;;;79.35;41.97;;;10.70;99.90;;;;;;6184206;28;20046;-81
2022/11/29 04:34:07;;;;;;;72.90;38.90;;;10.60;99.90;;;;;;6184058;28;20053;-81
2022/11/29 04:37:46;;;;;;;64.13;32.50;;;11.30;99.90;;;;;;6184446;28;20047;-80
2022/11/29 04:41:04;;;;;;;69.90;29.10;;;10.60;99.90;;;;;;6183643;28;20126;-80
2022/11/29 04:44:21;;;;;;;70.53;31.25;;;10.50;99.90;;;;;;6184014;28;20310;-80
2022/11/29 04:47:50;;;;;;;74.90;31.15;;;10.50;99.90;;;;;;6181440;28;20216;-81
2022/11/29 04:51:03;;;;;;;59.67;32.50;;;10.60;99.90;;;;;;6184772;28;20043;-82
2022/11/29 04:54:15;;;;;;;63.20;30.10;;;10.80;99.90;;;;;;6183776;28;20047;-81
2022/11/29 04:57:27;;;;;;;74.72;28.98;;;10.50;99.90;;;;;;6183632;28;20726;-82
2022/11/29 05:00:34;;;;;;;65.70;27.77;;;10.50;99.90;;;;;;6183273;28;20039;-80
2022/11/29 05:03:43;;;;;;;59.33;24.90;;;10.50;99.90;;;;;;6182513;28;20054;-80
2022/11/29 05:06:55;;;;;;;68.53;27.13;;;10.60;99.90;;;;;;6183301;28;20039;-80
2022/11/29 05:10:05;;;;;;;57.75;23.73;;;10.60;99.90;;;;;;6183512;28;20042;-81
2022/11/29 05:13:18;;;;;;;55.53;23.45;;;10.70;99.90;;;;;;6183184;28;20049;-80
2022/11/29 05:16:37;;;;;;;83.22;32.28;;;10.20;99.90;;;;;;6182285;28;20133;-80
2022/11/29 05:19:49;;;;;;;;;;;10.50;99.90;;;;;;6183861;28;20566;-81
2022/11/29 05:23:07;;;;;;;64.95;42.42;;;10.50;99.90;;;;;;6182360;28;19922;-80
2022/11/29 05:26:14;;;;;;;77.20;46.63;;;10.60;99.90;;;;;;6182577;28;20057;-80
2022/11/29 05:29:22;;;;;;;77.25;40.83;;;10.70;99.90;;;;;;6183045;28;20058;-80
2022/11/29 05:32:31;;;;;;;76.88;41.20;;;10.50;99.90;;;;;;6205603;28;20126;-81
2022/11/29 05:35:53;;;;;;;74.28;39.80;;;10.90;99.90;;;;;;6206131;28;20050;-80
2022/11/29 05:39:21;;;;;;;67.78;37.80;;;10.50;99.90;;;;;;6206652;28;20072;-81
2022/11/29 05:42:44;;;;;;;71.88;38.60;;;10.50;99.90;;;;;;6205494;28;20051;-81
2022/11/29 05:45:52;;;;;;;73.20;36.55;;;10.60;99.90;;;;;;6205827;28;20074;-80
2022/11/29 05:48:58;;;;;;;;;;;11.00;99.90;;;;;;6206322;28;20046;-81
2022/11/29 05:52:20;;;;;;;82.55;41.38;;;10.60;99.90;;;;;;6206180;28;19922;-81
2022/11/29 05:55:34;;;;;;;61.42;35.85;;;10.70;99.90;;;;;;6206892;28;20055;-81
2022/11/29 05:58:49;;;;;;;69.25;32.25;;;10.70;99.90;;;;;;6195931;28;20047;-81
2022/11/29 06:02:01;;;;;;;76.40;35.83;;;10.60;99.90;;;;;;6182416;28;20051;-83
2022/11/29 06:05:12;;;;;;;66.00;35.88;;;10.40;99.90;;;;;;6182857;28;20061;-81
2022/11/29 06:08:21;;;;;;;68.55;34.17;;;10.60;99.90;;;;;;6181838;28;20050;-81
2022/11/29 06:11:27;;;;;;;78.90;36.15;;;10.60;99.90;;;;;;6182299;28;20068;-81
2022/11/29 06:14:45;;;;;;;78.88;39.85;;;10.30;99.90;;;;;;6183417;28;20053;-81
2022/11/29 06:18:02;;;;;;;67.68;35.67;;;10.60;99.90;;;;;;6185376;28;20049;-81
2022/11/29 06:21:15;;;;;;;66.50;35.53;;;10.50;99.90;;;;;;6186782;28;20573;-81
2022/11/29 06:24:38;;;;;;;77.40;40.70;;;10.00;99.90;;;;;;6188316;28;20070;-81
2022/11/29 06:27:58;;;;;;;69.00;38.25;;;11.10;99.90;;;;;;6188240;28;20086;-82
2022/11/29 06:31:05;;;;;;;72.82;39.83;;;10.80;99.90;;;;;;6187081;28;20101;-81
2022/11/29 06:34:17;;;;;;;76.80;40.95;;;10.90;99.90;;;;;;6185805;28;20054;-81
2022/11/29 06:37:26;;;;;;;75.53;45.42;;;10.70;99.90;;;;;;6184619;28;20046;-81
2022/11/29 06:50:31;;;;;;;77.47;35.22;;;9.10;99.90;;;;;;5705257;23;20067;-82
2022/11/29 07:34:31;;;;;;;100.90;27.02;;;11.10;99.90;;;;;;5974399;29;20521;-81
2022/11/29 07:37:57;;;;;;;75.35;21.90;;;11.00;99.90;;;;;;5939492;30;20120;-80
2022/11/29 07:45:05;;;;;;;76.55;18.80;;;11.00;99.90;;;;;;6044275;29;20039;-81
2022/11/29 07:48:38;;;;;;;81.40;21.73;;;11.00;99.90;;;;;;6139849;29;20051;-81
2022/11/29 07:51:40;;;;;;;69.50;17.33;;;9.50;99.90;;;;;;6219344;23;20192;-80
2022/11/29 07:54:50;;;;;;;74.45;19.35;;;11.00;99.90;;;;;;6206147;28;20432;-83
2022/11/29 07:57:52;;;;;;;67.80;17.20;;;11.00;99.90;;;;;;6193526;28;20086;-80
2022/11/29 08:00:54;;;;;;;81.93;18.90;;;11.40;99.90;;;;;;6161136;28;20043;-80
2022/11/29 08:03:56;;;;;;;65.57;16.90;;;11.00;99.90;;;;;;6178064;28;20074;-80
2022/11/29 08:06:59;;;;;;;71.00;18.63;;;11.40;99.90;;;;;;6191195;28;20141;-84
2022/11/29 08:10:03;;;;;;;74.93;19.05;;;10.90;99.90;;;;;;6184384;28;20046;-81
2022/11/29 08:13:05;;;;;;;82.32;17.90;;;11.30;99.90;;;;;;6183531;28;20530;-81
2022/11/29 08:16:07;;;;;;;69.72;19.92;;;11.00;99.90;;;;;;6181104;28;20047;-82
2022/11/29 08:19:09;;;;;;;84.75;21.45;;;10.90;99.90;;;;;;6181446;28;20046;-82
2022/11/29 08:22:12;;;;;;;84.75;21.70;;;11.20;99.90;;;;;;6199932;28;20050;-80
2022/11/29 08:25:15;;;;;;;71.72;18.67;;;11.20;99.90;;;;;;6208413;28;20084;-81
2022/11/29 08:28:17;;;;;;;86.82;21.02;;;11.30;99.90;;;;;;6206812;28;20046;-82
2022/11/29 08:31:19;;;;;;;71.68;17.88;;;11.20;99.90;;;;;;6208161;28;20053;-81
2022/11/29 08:34:22;;;;;;;61.75;17.17;;;11.30;99.90;;;;;;6190096;28;20046;-80
2022/11/29 08:37:24;;;;;;;128.50;43.10;;;11.30;99.90;;;;;;6171601;28;20058;-80
2022/11/29 08:43:38;;;;;;;81.40;23.13;;;11.20;99.90;;;;;;6257696;23;20136;-83
2022/11/29 08:50:41;;;;;;;239.63;69.20;;;11.40;99.90;;;;;;6248544;23;20021;-84
2022/11/29 08:53:50;;;;;;;128.20;33.65;;;11.60;99.90;;;;;;6202401;28;20157;-84
2022/11/29 09:07:15;;;;;;;88.93;23.67;;;11.40;99.90;;;;;;6238282;23;20058;-81
2022/11/29 09:10:46;;;;;;;86.00;22.88;;;11.60;99.90;;;;;;6193407;28;20046;-81
2022/11/29 09:13:50;;;;;;;111.50;28.58;;;11.50;99.90;;;;;;6204429;28;20042;-80
2022/11/29 09:24:11;;;;;;;83.15;24.02;;;11.30;99.90;;;;;;6179825;28;20106;-81
2022/11/29 09:27:15;;;;;;;95.32;27.65;;;11.30;99.90;;;;;;6160934;29;20120;-81
2022/11/29 09:30:57;;;;;;;;;;;;;;;;;;;;;
2022/11/29 09:34:54;;;;;;;;;;;;;;;;;;;;;
2022/11/29 10:14:49;;;;;;;113.63;36.25;;;11.70;99.90;;;;;;6040409;29;20069;-82
2022/11/29 10:17:55;;;;;;;88.85;28.55;;;11.60;99.90;;;;;;6148215;29;20063;-81
2022/11/29 10:21:09;;;;;;;93.93;31.75;;;11.70;99.90;;;;;;6156842;28;20111;-82
2022/11/29 10:24:16;;;;;;;96.47;28.63;;;11.90;99.90;;;;;;6184346;28;20075;-83
2022/11/29 10:27:28;;;;;;;117.78;37.20;;;12.00;99.90;;;;;;6179602;28;20071;-81
2022/11/29 10:30:34;;;;;;;118.88;42.13;;;12.10;99.90;;;;;;6172954;28;20054;-84
2022/11/29 10:33:49;;;;;;;106.70;32.95;;;12.40;99.90;;;;;;6174611;28;20039;-82
2022/11/29 10:37:01;;;;;;;103.15;33.20;;;12.30;99.90;;;;;;6173140;28;20115;-84
2022/11/29 10:40:10;;;;;;;103.05;33.90;;;12.40;99.90;;;;;;6164914;28;20106;-81
2022/11/29 10:43:13;;;;;;;83.85;26.88;;;12.60;99.90;;;;;;6164909;29;20096;-82
2022/11/29 10:46:25;;;;;;;92.95;28.73;;;12.70;99.90;;;;;;6172028;28;20305;-82
2022/11/29 10:49:33;;;;;;;92.30;31.05;;;12.60;99.90;;;;;;6169736;28;20114;-83
2022/11/29 10:52:35;;;;;;;109.47;35.53;;;12.70;99.90;;;;;;6170156;28;20079;-84
2022/11/29 10:55:41;;;;;;;97.72;36.55;;;12.70;99.90;;;;;;6162252;28;20079;-83
2022/11/29 10:59:01;;;;;;;91.75;29.90;;;12.70;99.90;;;;;;6163388;28;20059;-83
2022/11/29 11:02:05;;;;;;;94.70;30.63;;;12.70;99.90;;;;;;6166607;28;20105;-82
2022/11/29 11:05:17;;;;;;;84.93;30.38;;;12.70;99.90;;;;;;6167127;28;20054;-82
2022/11/29 11:08:19;;;;;;;99.55;34.05;;;12.60;99.90;;;;;;6166855;28;20047;-82
2022/11/29 11:57:41;;;;;;;89.35;27.25;;;12.30;99.90;;;;;;6030557;29;20052;-82
2022/11/29 12:01:36;;;;;;;106.82;33.13;;;14.70;99.90;;;;;;6042510;29;20052;-82
2022/11/29 12:04:48;;;;;;;76.57;26.02;;;12.80;99.90;;;;;;6110346;29;20130;-82
2022/11/29 12:11:54;;;;;;;;;;;;;;;;;;;;;
2022/11/29 12:23:41;;;;;;;82.43;28.75;;;12.40;99.90;;;;;;6121577;29;20109;-82
2022/11/29 12:26:43;;;;;;;85.68;26.63;;;14.60;99.90;;;;;;6158916;28;20472;-82
2022/11/29 12:29:54;;;;;;;56.20;20.33;;;12.50;99.90;;;;;;6162814;28;20070;-82
2022/11/29 12:41:28;;;;;;;71.63;23.70;;;13.50;99.90;;;;;;6124145;28;20043;-81
2022/11/29 12:45:03;;;;;;;89.35;27.73;;;12.20;99.90;;;;;;6167265;28;20066;-81
2022/11/29 12:52:11;;;;;;;88.13;28.42;;;12.80;99.90;;;;;;6055111;29;20044;-81
2022/11/29 12:55:50;;;;;;;91.65;25.88;;;12.80;99.90;;;;;;6050633;29;20057;-81
2022/11/29 12:59:20;;;;;;;71.07;25.33;;;12.90;99.90;;;;;;6138783;28;20047;-82
2022/11/29 13:02:37;;;;;;;;;;;12.90;99.90;;;;;;6180789;28;20047;-82
2022/11/29 13:10:04;;;;;;;90.53;28.90;;;12.80;99.90;;;;;;6094188;28;20047;-81
2022/11/29 13:13:17;;;;;;;64.05;21.48;;;12.50;99.90;;;;;;6178629;28;20131;-82
2022/11/29 13:17:05;;;;;;;97.00;30.60;;;12.20;99.90;;;;;;6179039;28;20062;-81
2022/11/29 13:20:53;;;;;;;86.68;29.80;;;12.60;99.90;;;;;;6169184;28;20050;-81
2022/11/29 13:24:23;;;;;;;77.32;26.98;;;12.50;99.90;;;;;;6191591;28;20050;-81
2022/11/29 13:27:30;;;;;;;99.80;34.67;;;12.50;99.90;;;;;;6208948;28;20463;-80
2022/11/29 13:35:14;;;;;;;78.25;26.05;;;11.80;99.90;;;;;;6166073;28;20047;-80
2022/11/29 13:39:06;;;;;;;61.88;21.67;;;12.50;99.90;;;;;;6204820;28;20110;-80
2022/11/29 13:42:58;;;;;;;67.97;23.42;;;12.90;99.90;;;;;;6195179;28;20045;-80
2022/11/29 13:46:28;;;;;;;71.88;22.73;;;12.50;99.90;;;;;;6163428;28;20459;-81
2022/11/29 13:50:09;;;;;;;81.88;26.05;;;12.30;99.90;;;;;;6204731;28;20539;-80
2022/11/29 13:57:48;;;;;;;91.95;28.67;;;12.80;99.90;;;;;;6055072;29;20056;-82
2022/11/29 14:00:56;;;;;;;96.57;29.73;;;12.40;99.90;;;;;;6154018;28;20117;-80
2022/11/29 14:04:37;;;;;;;72.18;24.52;;;12.80;99.90;;;;;;6207105;28;20949;-81
2022/11/29 14:08:25;;;;;;;106.43;33.83;;;12.40;99.90;;;;;;6207731;28;20058;-80
2022/11/29 14:11:43;;;;;;;77.70;23.27;;;12.20;99.90;;;;;;6177787;28;20050;-80
2022/11/29 14:14:56;;;;;;;84.70;28.50;;;12.10;99.90;;;;;;6208879;28;20053;-80
2022/11/29 14:18:01;;;;;;;75.57;23.75;;;12.30;99.90;;;;;;6208005;28;20054;-79
2022/11/29 14:21:03;;;;;;;75.47;26.05;;;12.10;99.90;;;;;;6208403;28;20046;-80
2022/11/29 14:24:37;;;;;;;70.53;25.63;;;12.20;99.90;;;;;;6206634;28;20129;-80
2022/11/29 14:27:56;;;;;;;77.40;28.05;;;12.20;99.90;;;;;;6206152;28;20050;-79
2022/11/29 14:31:01;;;;;;;74.68;23.92;;;12.10;99.90;;;;;;6207863;28;20054;-80
2022/11/29 14:34:08;;;;;;;65.55;21.02;;;12.10;99.90;;;;;;6208174;28;20393;-81
2022/11/29 14:37:32;;;;;;;62.03;22.75;;;12.00;99.90;;;;;;6208824;28;20042;-81
2022/11/29 14:40:44;;;;;;;121.05;38.67;;;12.10;99.90;;;;;;6210184;28;20050;-81
2022/11/29 14:43:45;;;;;;;83.03;28.67;;;11.80;99.90;;;;;;6204643;28;20051;-82
2022/11/29 14:46:59;;;;;;;84.82;25.25;;;12.00;99.90;;;;;;6193699;28;20049;-81
2022/11/29 14:50:05;;;;;;;80.90;25.17;;;11.90;99.90;;;;;;6212119;28;20520;-81
2022/11/29 15:06:49;;;;;;;62.55;20.20;;;11.90;99.90;;;;;;6131584;28;20074;-82
2022/11/29 15:09:55;;;;;;;66.57;20.92;;;11.80;99.90;;;;;;6188133;28;20501;-81
2022/11/29 15:17:01;;;;;;;83.03;26.65;;;11.80;99.90;;;;;;5996049;26;20509;-80
2022/11/29 15:48:18;;;;;;;76.97;23.27;;;11.60;99.90;;;;;;6180422;28;20043;-82
2022/11/29 15:52:09;;;;;;;91.40;25.60;;;11.40;99.90;;;;;;6192461;28;20046;-81
2022/11/29 15:59:04;;;;;;;122.38;32.58;;;11.60;99.90;;;;;;6150106;28;20062;-81
2022/11/29 18:21:49;;;;;;;;;;;13.10;99.90;;;;;;7488340;23;20452;-90
2022/11/29 18:36:04;;;;;;;;;;;10.80;99.90;;;;;;7349656;23;19978;-84
2022/11/29 18:39:09;;;;;;;144.40;40.17;;;10.20;99.90;;;;;;7477196;23;21089;-79
2022/11/29 18:43:00;;;;;;;;;;;10.00;99.90;;;;;;7454638;23;20019;-84
2022/11/29 18:46:22;;;;;;;;;;;10.00;99.90;;;;;;7478355;23;19918;-83
2022/11/29 18:49:24;;;;;;;;;;;10.40;99.90;;;;;;7506456;23;19965;-79
2022/11/29 18:52:26;;;;;;;;;;;10.30;99.90;;;;;;7513739;23;20004;-79
2022/11/29 18:55:29;;;;;;;;;;;9.80;99.90;;;;;;7512578;23;19928;-80
2022/11/29 18:58:30;;;;;;;;;;;9.40;99.90;;;;;;7509219;23;19973;-79
2022/11/29 19:01:36;;;;;;;123.95;52.22;;;9.50;99.90;;;;;;7509045;23;20479;-80
2022/11/29 19:04:40;;;;;;;122.65;50.88;;;9.60;99.90;;;;;;7502160;23;20023;-81
2022/11/29 19:07:42;;;;;;;204.85;99.53;;;9.70;99.90;;;;;;7508243;23;20711;-80
2022/11/29 19:10:45;;;;;;;182.27;75.43;;;9.50;99.90;;;;;;7574755;23;20049;-80
2022/11/29 19:13:47;;;;;;;186.07;76.60;;;9.50;99.90;;;;;;7579989;23;20070;-80
2022/11/29 19:16:50;;;;;;;116.10;51.35;;;9.30;99.90;;;;;;7577053;23;20109;-79
2022/11/29 19:19:51;;;;;;;102.07;43.58;;;9.40;99.90;;;;;;7575034;23;20097;-80
2022/11/29 19:22:53;;;;;;;104.53;37.88;;;9.40;99.90;;;;;;7576145;23;20077;-80
2022/11/29 19:26:02;;;;;;;120.88;45.10;;;9.30;99.90;;;;;;7577158;23;20022;-80
2022/11/29 19:29:03;;;;;;;96.68;36.63;;;9.30;99.90;;;;;;7575472;23;20101;-80
2022/11/29 19:32:07;;;;;;;104.82;39.72;;;9.20;99.90;;;;;;7577736;23;20083;-80
2022/11/29 19:35:09;;;;;;;103.30;35.00;;;9.20;99.90;;;;;;7567562;23;20027;-81
2022/11/29 19:38:11;;;;;;;103.97;36.47;;;9.20;99.90;;;;;;7579161;23;20050;-79
2022/11/29 19:41:16;;;;;;;113.90;35.42;;;9.10;99.90;;;;;;7580452;23;20070;-81
2022/11/29 19:44:18;;;;;;;111.82;38.45;;;9.10;99.90;;;;;;7576484;23;20042;-80
2022/11/29 19:47:19;;;;;;;121.05;44.92;;;9.10;99.90;;;;;;7574595;23;20029;-80
2022/11/29 19:50:21;;;;;;;111.10;38.92;;;9.10;99.90;;;;;;7576368;23;20022;-81
2022/11/29 19:53:23;;;;;;;103.95;37.55;;;9.10;99.90;;;;;;7586717;23;20568;-83
2022/11/29 19:56:27;;;;;;;102.97;36.65;;;9.10;99.90;;;;;;7576347;23;20028;-79
2022/11/29 19:59:29;;;;;;;102.90;35.88;;;9.10;99.90;;;;;;7579162;23;20027;-79
2022/11/29 20:02:31;;;;;;;118.50;40.03;;;9.10;99.90;;;;;;7581392;23;20561;-79
2022/11/29 20:05:33;;;;;;;114.35;38.92;;;9.10;99.90;;;;;;7580028;23;20055;-80
2022/11/29 20:08:35;;;;;;;91.60;35.33;;;9.10;99.90;;;;;;7573446;23;20349;-79
2022/11/29 20:11:38;;;;;;;129.57;51.47;;;9.10;99.90;;;;;;7575883;23;20045;-80
2022/11/29 20:14:40;;;;;;;115.43;43.33;;;9.10;99.90;;;;;;7579251;23;20038;-80
2022/11/29 20:17:41;;;;;;;132.23;47.72;;;9.10;99.90;;;;;;7501422;23;20026;-80
2022/11/29 20:20:43;;;;;;;131.30;45.97;;;9.20;99.90;;;;;;7575836;23;20101;-80
2022/11/29 20:23:45;;;;;;;166.38;63.63;;;9.10;99.90;;;;;;7576010;23;20105;-80
2022/11/29 20:26:49;;;;;;;102.75;41.63;;;9.10;99.90;;;;;;7577095;23;20040;-79
2022/11/29 20:29:51;;;;;;;107.53;36.08;;;9.10;99.90;;;;;;7577667;23;20070;-80
2022/11/29 20:32:53;;;;;;;119.63;41.50;;;9.10;99.90;;;;;;7576837;23;20105;-80
2022/11/29 20:35:59;;;;;;;107.85;44.45;;;9.20;99.90;;;;;;7578283;23;20101;-80
2022/11/29 20:39:11;;;;;;;108.32;39.60;;;9.10;99.90;;;;;;7580580;23;20046;-80
2022/11/29 20:42:31;;;;;;;117.03;38.40;;;9.10;99.90;;;;;;7576672;23;20093;-81
2022/11/29 20:45:34;;;;;;;117.90;40.13;;;9.00;99.90;;;;;;7576509;23;20582;-81
2022/11/29 20:48:36;;;;;;;117.43;38.28;;;9.10;99.90;;;;;;7576811;23;20026;-79
2022/11/29 20:51:44;;;;;;;104.28;35.47;;;9.10;99.90;;;;;;7574136;23;20018;-79
2022/11/29 20:54:46;;;;;;;119.63;37.90;;;9.00;99.90;;;;;;7574805;23;20082;-80
2022/11/29 20:57:49;;;;;;;110.32;34.75;;;9.10;99.90;;;;;;7575724;23;20106;-81
2022/11/29 21:00:51;;;;;;;103.10;39.70;;;9.10;99.90;;;;;;7574684;23;20022;-80
2022/11/29 21:03:53;;;;;;;113.78;37.33;;;9.00;99.90;;;;;;7575805;23;20117;-79
2022/11/29 21:06:55;;;;;;;121.20;41.55;;;9.00;99.90;;;;;;7574459;23;20117;-78
2022/11/29 21:09:56;;;;;;;135.00;39.70;;;9.00;99.90;;;;;;7573865;23;20097;-79
2022/11/29 21:13:00;;;;;;;106.75;39.10;;;9.00;99.90;;;;;;7572257;23;20437;-80
2022/11/29 21:16:03;;;;;;;116.70;44.50;;;9.00;99.90;;;;;;7573703;23;20331;-84
2022/11/29 21:19:06;;;;;;;132.05;41.90;;;9.00;99.90;;;;;;7572533;23;20547;-81
2022/11/29 21:22:14;;;;;;;104.80;37.38;;;9.00;99.90;;;;;;7572988;23;20441;-80
2022/11/29 21:25:25;;;;;;;123.32;40.05;;;9.00;99.90;;;;;;7577119;23;20097;-79
2022/11/29 21:28:34;;;;;;;115.57;43.33;;;9.00;99.90;;;;;;7574752;23;20133;-80
2022/11/29 21:31:36;;;;;;;122.20;46.78;;;9.00;99.90;;;;;;7572373;23;20023;-79
2022/11/29 21:34:38;;;;;;;117.50;50.42;;;9.00;99.90;;;;;;7572173;23;20033;-80
2022/11/29 21:37:40;;;;;;;104.07;41.78;;;9.00;99.90;;;;;;7571413;23;20078;-79
2022/11/29 21:40:42;;;;;;;126.78;42.92;;;9.00;99.90;;;;;;7572772;23;20062;-79
2022/11/29 21:43:45;;;;;;;127.15;43.72;;;9.00;99.90;;;;;;7573688;23;20044;-78
2022/11/29 21:46:47;;;;;;;124.20;44.17;;;9.00;99.90;;;;;;7573949;23;20033;-80
2022/11/29 21:49:51;;;;;;;112.30;37.40;;;9.00;99.90;;;;;;7572923;23;20033;-79
2022/11/29 21:52:53;;;;;;;124.32;40.38;;;9.00;99.90;;;;;;7572618;23;20073;-80
2022/11/29 21:55:58;;;;;;;114.43;45.28;;;9.00;99.90;;;;;;7574063;23;20329;-79
2022/11/29 21:59:01;;;;;;;164.40;75.85;;;9.00;99.90;;;;;;7573674;23;20070;-81
2022/11/29 22:02:04;;;;;;;141.68;72.65;;;9.00;99.90;;;;;;7573564;23;20133;-78
2022/11/29 22:05:08;;;;;;;111.88;46.00;;;9.00;99.90;;;;;;7572633;23;20077;-78
2022/11/29 22:08:10;;;;;;;121.72;49.38;;;9.00;99.90;;;;;;7570901;23;20515;-82
2022/11/29 22:11:13;;;;;;;133.20;42.33;;;9.00;99.90;;;;;;7572858;23;20102;-79
2022/11/29 22:14:35;;;;;;;122.88;43.20;;;9.00;99.90;;;;;;7598972;23;20101;-85
2022/11/29 22:17:37;;;;;;;109.35;41.95;;;9.00;99.90;;;;;;7621922;23;20041;-83
2022/11/29 22:20:46;;;;;;;113.10;41.00;;;9.00;99.90;;;;;;7645672;23;20010;-85
2022/11/29 22:23:47;;;;;;;113.60;37.35;;;9.00;99.90;;;;;;7586825;23;20018;-86
2022/11/29 22:26:54;;;;;;;113.07;43.13;;;8.90;99.90;;;;;;7575093;23;20505;-84
2022/11/29 22:29:57;;;;;;;114.55;40.60;;;9.00;99.90;;;;;;7520690;23;20050;-85
2022/11/29 22:32:59;;;;;;;104.47;38.97;;;9.00;99.90;;;;;;7570609;23;20098;-85
2022/11/29 22:36:05;;;;;;;115.63;39.45;;;9.00;99.90;;;;;;7570516;23;20113;-85
2022/11/29 22:39:08;;;;;;;103.47;39.08;;;9.00;99.90;;;;;;7541513;23;20106;-85
2022/11/29 22:42:10;;;;;;;124.22;37.38;;;9.00;99.90;;;;;;7552838;23;20026;-85
2022/11/29 22:45:14;;;;;;;92.60;35.45;;;8.90;99.90;;;;;;7569324;23;20074;-86
2022/11/29 22:48:16;;;;;;;116.32;39.22;;;8.90;99.90;;;;;;7569590;23;20018;-85
2022/11/29 22:51:21;;;;;;;112.38;40.97;;;8.90;99.90;;;;;;7571193;23;20053;-85
2022/11/29 22:54:22;;;;;;;109.78;37.55;;;8.90;99.90;;;;;;7582399;23;20081;-85
2022/11/29 22:57:24;;;;;;;106.18;36.97;;;8.90;99.90;;;;;;7569948;23;20029;-82
2022/11/29 23:00:32;;;;;;;113.38;37.97;;;8.80;99.90;;;;;;7570940;23;20129;-87